Flight Track Log - Related Links

Times and Time Zones

All times are in EDT time to prevent confusion due to time zone crossing. See the ASQ4253 flight status page for this flight to view local times or setup timezone preferences in your user account.

Time Position Orientation Groundspeed Altitude Reporting Facility
EDT Latitude Longitude Course Direction KTS MPH feet Rate Location/Type
Thu 05:40:26 PM 33.8253 -81.0625 175° South 216 249 5,300  Level Jacksonville Center
Thu 05:41:26 PM 33.7606 -81.0639 181° South 242 278 7,000 1,700 Climbing Jacksonville Center
Thu 05:42:26 PM 33.7261 -81.1297 238° Southwest 235 270 8,700 1,550 Climbing Jacksonville Center
Thu 05:43:26 PM 33.6939 -81.2125 245° Southwest 255 293 10,100 1,200 Climbing Jacksonville Center
Thu 05:44:26 PM 33.6553 -81.3081 244° Southwest 290 334 11,100 1,050 Climbing Jacksonville Center
Thu 05:45:26 PM 33.6147 -81.4086 244° Southwest 321 369 12,200 1,110 Climbing Jacksonville Center
Thu 05:47:19 PM 33.5322 -81.6067 243° Southwest 351 404 14,300 1,110 Climbing Atlanta Center
Thu 05:48:19 PM 33.4925 -81.7097 245° Southwest 356 410 15,400 1,000 Climbing Atlanta Center
Thu 05:49:19 PM 33.4506 -81.8206 246° West 356 410 16,300 800 Climbing Atlanta Center
Thu 05:50:19 PM 33.4044 -81.9261 242° Southwest 356 410 17,000 350 Climbing Atlanta Center
Thu 05:51:19 PM 33.3583 -82.0417 244° Southwest 368 423 17,000 400 Level Atlanta Center
Thu 05:52:19 PM 33.3103 -82.1547 243° Southwest 373 429 17,800 1,050 Climbing Atlanta Center
Thu 05:53:19 PM 33.2681 -82.2650 245° Southwest 373 429 19,100 1,200 Climbing Atlanta Center
Thu 05:54:19 PM 33.2214 -82.3725 243° Southwest 373 429 20,200 1,150 Climbing Atlanta Center
Thu 05:55:19 PM 33.1769 -82.4803 244° Southwest 368 423 21,400 1,100 Climbing Atlanta Center
Thu 05:56:19 PM 33.1322 -82.5878 244° Southwest 368 423 22,400 1,050 Climbing Atlanta Center
Thu 05:57:19 PM 33.0897 -82.6950 245° Southwest 368 423 23,500 1,050 Climbing Atlanta Center
Thu 05:58:19 PM 33.0450 -82.7997 243° Southwest 368 423 24,500 1,050 Climbing Atlanta Center
Thu 05:59:19 PM 33.0000 -82.9069 243° Southwest 368 423 25,600 1,050 Climbing Atlanta Center
Thu 06:00:19 PM 32.9572 -83.0114 244° Southwest 368 423 26,600 1,000 Climbing Atlanta Center
Thu 06:01:19 PM 32.9142 -83.1158 244° Southwest 363 418 27,600 1,150 Climbing Atlanta Center
Thu 06:02:19 PM 32.8647 -83.2300 243° Southwest 363 418 28,900 1,150 Climbing Atlanta Center
Thu 06:03:19 PM 32.8217 -83.3392 245° Southwest 363 418 29,900 1,000 Climbing Atlanta Center
Thu 06:04:19 PM 32.7806 -83.4433 245° Southwest 358 412 30,900 1,050 Climbing Atlanta Center
Thu 06:05:19 PM 32.7350 -83.5450 242° Southwest 358 412 32,000 1,100 Climbing Atlanta Center
Thu 06:06:19 PM 32.6914 -83.6489 244° Southwest 358 412 33,100 1,100 Climbing Atlanta Center
Thu 06:07:19 PM 32.6708 -83.7625 258° West 353 406 34,200 1,100 Climbing Atlanta Center
Thu 06:08:19 PM 32.6544 -83.8686 260° West 348 400 35,300 900 Climbing Atlanta Center
Thu 06:09:19 PM 32.6378 -83.9772 260° West 337 388 36,000 350 Climbing Atlanta Center
Thu 06:10:19 PM 32.6192 -84.0881 259° West 337 388 36,000  Level Atlanta Center
Thu 06:11:19 PM 32.5981 -84.2042 258° West 345 397 36,000  Level Atlanta Center
Thu 06:12:19 PM 32.5769 -84.3297 259° West 367 422 36,000  Level Atlanta Center
Thu 06:13:19 PM 32.5558 -84.4553 259° West 389 448 36,000  Level Atlanta Center
Thu 06:14:19 PM 32.5344 -84.5833 259° West 394 453 36,000  Level Atlanta Center
Thu 06:15:19 PM 32.5131 -84.7064 258° West 394 453 36,000  Level Atlanta Center
Thu 06:16:19 PM 32.4892 -84.8317 257° West 394 453 36,000  Level Atlanta Center
Thu 06:17:19 PM 32.4675 -84.9497 258° West 387 445 36,000  Level Atlanta Center
Thu 06:18:19 PM 32.4456 -85.0800 259° West 393 452 36,000  Level Atlanta Center
Thu 06:19:19 PM 32.4258 -85.2053 259° West 398 458 36,000  Level Atlanta Center
Thu 06:20:19 PM 32.4036 -85.3328 258° West 398 458 36,000  Level Atlanta Center
Thu 06:21:19 PM 32.3792 -85.4628 257° West 398 458 36,000  Level Atlanta Center
Thu 06:22:19 PM 32.3547 -85.5928 257° West 403 464 36,000  Level Atlanta Center
Thu 06:23:19 PM 32.3319 -85.7253 259° West 409 471 36,000  Level Atlanta Center
Thu 06:24:19 PM 32.3050 -85.8597 257° West 416 479 36,000  Level Atlanta Center
Thu 06:25:19 PM 32.2761 -85.9869 255° West 416 479 36,000  Level Atlanta Center
Thu 06:26:19 PM 32.2183 -86.0742 232° Southwest 411 473 36,000  Level Atlanta Center
Thu 06:27:19 PM 32.1469 -86.2097 238° Southwest 411 473 36,000  Level Atlanta Center
Thu 06:28:19 PM 32.0636 -86.3181 228° Southwest 427 491 36,000  Level Atlanta Center
Thu 06:29:19 PM 32.0033 -86.4242 236° Southwest 427 491 36,000  Level Atlanta Center
Thu 06:30:19 PM 31.9303 -86.5300 231° Southwest 420 483 36,000  Level Atlanta Center
Thu 06:31:19 PM 31.8633 -86.6333 233° Southwest 420 483 36,000  Level Atlanta Center
Thu 06:32:19 PM 31.8031 -86.7244 232° Southwest 409 471 36,000  Level Atlanta Center
Thu 06:33:19 PM 31.7294 -86.8419 234° Southwest 404 465 36,000  Level Atlanta Center
Thu 06:34:19 PM 31.6625 -86.9447 233° Southwest 404 465 36,000  Level Atlanta Center
Thu 06:35:19 PM 31.6017 -87.0428 234° Southwest 404 465 36,000  Level Atlanta Center
Thu 06:36:19 PM 31.5386 -87.1406 233° Southwest 393 452 36,000  Level Atlanta Center
Thu 06:36:57 PM 31.4997 -87.1919 228° Southwest 381 438 36,000  Level Houston Center
Thu 06:38:00 PM 31.4344 -87.2911 232° Southwest 384 442 36,000  Level Houston Center
Thu 06:39:02 PM 31.3678 -87.3931 233° Southwest 392 451 36,000  Level Houston Center
Thu 06:40:04 PM 31.2869 -87.5164 233° Southwest 396 456 36,000  Level Houston Center
Thu 06:41:06 PM 31.2258 -87.6250 237° Southwest 399 459 36,000  Level Houston Center
Thu 06:42:08 PM 31.1831 -87.7528 249° West 405 466 36,000  Level Houston Center
Thu 06:43:10 PM 31.1411 -87.8736 248° West 403 464 36,000  Level Houston Center
Thu 06:44:12 PM 31.0997 -87.9936 248° West 399 459 36,000  Level Houston Center
Thu 06:45:14 PM 31.0578 -88.1131 248° West 398 458 36,000  Level Houston Center
Thu 06:46:16 PM 31.0144 -88.2333 247° West 402 463 36,000  Level Houston Center
Thu 06:47:18 PM 30.9631 -88.3783 248° West 405 466 36,000 -48 Level Houston Center
Thu 06:48:20 PM 30.9194 -88.5053 248° West 419 482 35,900  Descending Houston Center
Thu 06:49:22 PM 30.8728 -88.6400 248° West 420 483 36,000 48 Climbing Houston Center
Thu 06:50:24 PM 30.8281 -88.7653 247° West 421 484 36,000  Level Houston Center
Thu 06:51:26 PM 30.7833 -88.8931 248° West 426 490 36,000  Level Houston Center
Thu 06:52:28 PM 30.7411 -89.0117 248° West 427 491 36,000  Level Houston Center
Thu 06:53:30 PM 30.6872 -89.1647 248° West 428 493 36,000  Level Houston Center
Thu 06:54:31 PM 30.6422 -89.2928 248° West 429 494 36,000  Level Houston Center
Thu 06:55:33 PM 30.5975 -89.4197 248° West 427 491 36,000 -48 Level Houston Center
Thu 06:56:35 PM 30.5519 -89.5467 247° West 427 491 35,900  Descending Houston Center
Thu 06:57:37 PM 30.5061 -89.6742 247° West 431 496 36,000 48 Climbing Houston Center
Thu 06:58:39 PM 30.4522 -89.8122 246° West 436 502 36,000  Level Houston Center
Thu 06:59:41 PM 30.4061 -89.9531 249° West 465 535 36,000  Level Houston Center
Thu 07:00:43 PM 30.3583 -90.0792 246° West 440 506 36,000  Level Houston Center
Thu 07:01:45 PM 30.3106 -90.2072 247° West 451 519 36,000  Level Houston Center
Thu 07:02:47 PM 30.2536 -90.3614 247° West 441 507 36,000  Level Houston Center
Thu 07:03:49 PM 30.2075 -90.4867 247° West 428 493 36,000  Level Houston Center
Thu 07:04:51 PM 30.1597 -90.6111 246° West 425 489 36,000  Level Houston Center
Thu 07:05:53 PM 30.1136 -90.7372 247° West 428 493 36,000  Level Houston Center
Thu 07:06:55 PM 30.0661 -90.8647 247° West 432 497 36,000  Level Houston Center
Thu 07:07:57 PM 30.0178 -90.9914 246° West 433 498 36,000  Level Houston Center
Thu 07:08:59 PM 29.9603 -91.1439 247° West 432 497 36,000  Level Houston Center
Thu 07:10:02 PM 29.9128 -91.2686 246° West 428 493 36,000  Level Houston Center
Thu 07:11:03 PM 29.8664 -91.3939 247° West 424 488 36,000  Level Houston Center
Thu 07:12:05 PM 29.8189 -91.5175 246° West 424 488 36,000  Level Houston Center
Thu 07:13:07 PM 29.7703 -91.6444 246° West 431 496 36,000  Level Houston Center
Thu 07:14:09 PM 29.7200 -91.7753 246° West 436 502 36,000  Level Houston Center
Thu 07:15:11 PM 29.6719 -91.9014 246° West 432 497 36,000  Level Houston Center
Thu 07:16:13 PM 29.6147 -92.0503 246° West 426 490 36,000  Level Houston Center
Thu 07:17:15 PM 29.5672 -92.1742 246° West 424 488 36,000  Level Houston Center
Thu 07:18:17 PM 29.5181 -92.2983 246° West 426 490 36,000  Level Houston Center
Thu 07:19:19 PM 29.4697 -92.4253 246° West 432 497 36,000 -48 Level Houston Center
Thu 07:20:21 PM 29.4614 -92.5622 266° West 431 496 35,900  Descending Houston Center
Thu 07:21:23 PM 29.4678 -92.7017 273° West 436 502 36,000 48 Climbing Houston Center
Thu 07:22:25 PM 29.4739 -92.8419 273° West 439 505 36,000 -242 Level Houston Center
Thu 07:23:27 PM 29.4819 -93.0131 273° West 446 513 35,500 -1,065 Descending Houston Center
Thu 07:24:29 PM 29.4875 -93.1533 273° West 442 509 33,800 -1,839 Descending Houston Center
Thu 07:25:31 PM 29.4939 -93.2967 273° West 447 514 31,700 -2,274 Descending Houston Center
Thu 07:26:33 PM 29.4997 -93.4425 273° West 454 522 29,100 -2,613 Descending Houston Center
Thu 07:27:35 PM 29.5058 -93.5875 273° West 455 524 26,300 -2,806 Descending Houston Center
Thu 07:28:37 PM 29.5103 -93.7333 272° West 450 518 23,300 -2,758 Descending Houston Center
Thu 07:29:39 PM 29.5164 -93.8717 273° West 447 514 20,600 -2,758 Descending Houston Center
Thu 07:30:41 PM 29.5222 -94.0322 272° West 430 495 17,600 -2,727 Descending Houston Center
Thu 07:31:29 PM 29.5264 -94.1394 273° West 403 464 15,600 -2,444 Descending Houston Center
Thu 07:31:35 PM 29.5256 -94.1539 266° West 404 465 15,400 -1,846 Descending Houston Center
Thu 07:31:42 PM 29.5267 -94.1608 280° West 413 475 15,200 -2,164 Descending Houston Center
Thu 07:32:36 PM 29.5300 -94.2808 272° West 388 447 13,200 -2,032 Descending Houston Center
Thu 07:32:44 PM 29.5308 -94.2828 296° West 395 455 13,100 -393 Descending Houston Center
Thu 07:33:37 PM 29.5511 -94.3861 283° West 343 395 12,800 -387 Descending Houston Center
Thu 07:33:46 PM 29.5522 -94.3892 293° West 354 407 12,700 -1,082 Descending Houston Center
Thu 07:34:38 PM 29.5925 -94.4867 295° West 343 395 11,700 -968 Descending Houston Center
Thu 07:34:48 PM 29.5939 -94.4867 360° North 344 396 11,700 -984 Level Houston Center
Thu 07:35:39 PM 29.6358 -94.5869 296° West 338 389 10,700 -968 Descending Houston Center
Thu 07:35:50 PM 29.6356 -94.5844 97° East 342 394 10,700 -984 Level Houston Center
Thu 07:36:40 PM 29.6739 -94.6758 296° West 289 333 9,700 -1,161 Descending Houston Center
Thu 07:36:52 PM 29.6814 -94.6903 301° West 309 356 9,500 -1,279 Descending Houston Center
Thu 07:37:41 PM 29.7097 -94.7628 294° West 293 337 8,400 -1,258 Descending Houston Center
Thu 07:37:54 PM 29.7164 -94.7717 311° West 290 334 8,200 -1,054 Descending Houston Center
Thu 07:38:55 PM 29.7514 -94.8550 296° West 291 335 7,100 -1,145 Descending Houston Center
Thu 07:39:44 PM 29.7803 -94.9297 294° West 282 325 6,100 -968 Descending Houston Center
Thu 07:39:57 PM 29.7850 -94.9353 314° West 284 327 6,100  Level Houston Center
Thu 07:40:45 PM 29.8153 -95.0097 295° West 275 316 6,100 -97 Level Houston Center
Thu 07:40:59 PM 29.8181 -95.0139 308° West 278 320 6,000 -98 Descending Houston Center
Thu 07:41:46 PM 29.8503 -95.0919 295° West 282 325 6,000  Level Houston Center
Thu 07:42:01 PM 29.8589 -95.1100 299° West 281 323 6,000 98 Level Houston Center
Thu 07:42:47 PM 29.8828 -95.1722 294° West 280 322 6,100  Climbing Houston Center
Thu 07:43:03 PM 29.8922 -95.1903 301° West 281 323 6,000  Descending Houston Center
Thu 07:43:48 PM 29.8997 -95.2619 277° West 273 314 6,100  Climbing Houston Center
Thu 07:44:05 PM 29.8997 -95.2772 270° West 279 321 6,000 -97 Descending Houston Center
Thu 07:44:50 PM 29.8992 -95.3486 270° West 277 319 6,000  Level Houston Center
Thu 07:45:07 PM 29.9003 -95.3647 275° West 277 319 6,000  Level Houston Center
Thu 07:45:51 PM 29.9006 -95.4328 270° West 249 287 6,000  Level Houston Center
Thu 07:46:09 PM 29.9014 -95.4467 274° West 260 299 6,000 -98 Level Houston Center
Thu 07:46:52 PM 29.8997 -95.5150 268° West 234 269 5,900 -387 Descending Houston Center
Thu 07:47:11 PM 29.9006 -95.5364 273° West 239 275 5,600 -1,279 Descending Houston Center
Thu 07:47:53 PM 29.9022 -95.5894 272° West 235 270 4,600 -1,258 Descending Houston Center
Thu 07:48:13 PM 29.9131 -95.6083 303° West 237 273 4,300 -1,180 Descending Houston Center
Thu 07:48:54 PM 29.9583 -95.6067 North 240 276 3,400 -1,161 Descending Houston Center
Thu 07:49:15 PM 29.9711 -95.5919 45° Northeast 234 269 3,100 -290 Descending Houston Center
Thu 07:49:56 PM 29.9906 -95.5450 64° Northeast 231 266 3,100 -194 Level Houston Center
Thu 07:50:17 PM 29.9933 -95.5253 81° East 229 264 2,900 -984 Descending Houston Center
Thu 07:50:57 PM 29.9928 -95.4772 91° East 184 212 2,100 -885 Descending Houston Center
Thu 07:51:18 PM 29.9933 -95.4653 87° East 203 234 2,000 -689 Descending Houston Center
Thu 07:51:58 PM 29.9925 -95.4292 92° East 133 153 1,400 -774 Descending Houston Center
Thu 07:52:20 PM 29.9936 -95.4183 83° East 175 201 1,200 -689 Descending Houston Center
Thu 07:52:59 PM 29.9931 -95.3881 91° East 131 151 700 -677 Descending Houston Center
Thu 07:53:22 PM 29.9939 -95.3778 85° East 146 168 500 -522 Descending Houston Center

Login

Don't have an account? Register now (free) for customized features, flight alerts, and more!